sensor_id;sensor_type;location;lat;lon;timestamp;P1;durP1;ratioP1;P2;durP2;ratioP2
46158;SDS011;31888;44.512;26.104;2023-03-31T00:01:05;15.07;;;7.57;;
46158;SDS011;31888;44.512;26.104;2023-03-31T00:03:32;12.77;;;6.75;;
46158;SDS011;31888;44.512;26.104;2023-03-31T00:06:00;14.02;;;7.50;;
46158;SDS011;31888;44.512;26.104;2023-03-31T00:08:26;14.88;;;7.03;;
46158;SDS011;31888;44.512;26.104;2023-03-31T00:10:52;12.52;;;7.10;;
46158;SDS011;31888;44.512;26.104;2023-03-31T00:13:17;16.23;;;7.55;;
46158;SDS011;31888;44.512;26.104;2023-03-31T00:15:42;16.23;;;7.22;;
46158;SDS011;31888;44.512;26.104;2023-03-31T00:18:07;16.63;;;7.63;;
46158;SDS011;31888;44.512;26.104;2023-03-31T00:20:33;17.75;;;8.13;;
46158;SDS011;31888;44.512;26.104;2023-03-31T00:22:59;15.18;;;7.82;;
46158;SDS011;31888;44.512;26.104;2023-03-31T00:25:24;13.23;;;8.13;;
46158;SDS011;31888;44.512;26.104;2023-03-31T00:27:48;13.88;;;8.00;;
46158;SDS011;31888;44.512;26.104;2023-03-31T00:30:14;14.77;;;7.47;;
46158;SDS011;31888;44.512;26.104;2023-03-31T00:32:39;18.75;;;8.20;;
46158;SDS011;31888;44.512;26.104;2023-03-31T00:35:04;15.25;;;7.97;;
46158;SDS011;31888;44.512;26.104;2023-03-31T00:37:31;12.75;;;7.57;;
46158;SDS011;31888;44.512;26.104;2023-03-31T00:39:56;16.25;;;7.40;;
46158;SDS011;31888;44.512;26.104;2023-03-31T00:42:21;14.50;;;7.68;;
46158;SDS011;31888;44.512;26.104;2023-03-31T00:47:57;17.80;;;8.13;;
46158;SDS011;31888;44.512;26.104;2023-03-31T00:50:28;13.15;;;7.22;;
46158;SDS011;31888;44.512;26.104;2023-03-31T00:53:00;14.00;;;7.55;;
46158;SDS011;31888;44.512;26.104;2023-03-31T00:55:32;17.33;;;7.95;;
46158;SDS011;31888;44.512;26.104;2023-03-31T00:58:00;14.23;;;7.45;;
46158;SDS011;31888;44.512;26.104;2023-03-31T01:00:26;17.80;;;7.35;;
46158;SDS011;31888;44.512;26.104;2023-03-31T01:02:52;14.02;;;6.82;;
46158;SDS011;31888;44.512;26.104;2023-03-31T01:05:22;16.13;;;7.07;;
46158;SDS011;31888;44.512;26.104;2023-03-31T01:07:50;13.90;;;7.60;;
46158;SDS011;31888;44.512;26.104;2023-03-31T01:10:17;18.38;;;8.13;;
46158;SDS011;31888;44.512;26.104;2023-03-31T01:12:44;13.95;;;7.03;;
46158;SDS011;31888;44.512;26.104;2023-03-31T01:15:12;12.25;;;6.88;;
46158;SDS011;31888;44.512;26.104;2023-03-31T01:17:38;14.18;;;7.53;;
46158;SDS011;31888;44.512;26.104;2023-03-31T01:20:08;14.77;;;7.28;;
46158;SDS011;31888;44.512;26.104;2023-03-31T01:22:53;15.38;;;7.60;;
46158;SDS011;31888;44.512;26.104;2023-03-31T01:28:32;14.07;;;7.43;;
46158;SDS011;31888;44.512;26.104;2023-03-31T01:31:07;16.00;;;7.70;;
46158;SDS011;31888;44.512;26.104;2023-03-31T01:37:00;16.20;;;7.03;;
46158;SDS011;31888;44.512;26.104;2023-03-31T01:43:01;15.80;;;8.38;;
46158;SDS011;31888;44.512;26.104;2023-03-31T01:45:35;13.65;;;7.68;;
46158;SDS011;31888;44.512;26.104;2023-03-31T01:48:14;15.20;;;7.55;;
46158;SDS011;31888;44.512;26.104;2023-03-31T01:50:44;14.25;;;7.13;;
46158;SDS011;31888;44.512;26.104;2023-03-31T01:53:15;16.20;;;8.18;;
46158;SDS011;31888;44.512;26.104;2023-03-31T01:55:45;14.73;;;8.02;;
46158;SDS011;31888;44.512;26.104;2023-03-31T01:58:20;15.73;;;7.78;;
46158;SDS011;31888;44.512;26.104;2023-03-31T02:00:49;14.80;;;7.90;;
46158;SDS011;31888;44.512;26.104;2023-03-31T02:03:20;16.20;;;8.45;;
46158;SDS011;31888;44.512;26.104;2023-03-31T02:05:48;18.77;;;9.20;;
46158;SDS011;31888;44.512;26.104;2023-03-31T02:08:16;13.63;;;7.63;;
46158;SDS011;31888;44.512;26.104;2023-03-31T02:10:45;19.63;;;8.05;;
46158;SDS011;31888;44.512;26.104;2023-03-31T02:13:12;14.55;;;7.53;;
46158;SDS011;31888;44.512;26.104;2023-03-31T02:15:43;15.60;;;8.70;;
46158;SDS011;31888;44.512;26.104;2023-03-31T02:18:12;14.77;;;8.27;;
46158;SDS011;31888;44.512;26.104;2023-03-31T02:20:41;14.77;;;8.20;;
46158;SDS011;31888;44.512;26.104;2023-03-31T02:23:08;17.30;;;8.27;;
46158;SDS011;31888;44.512;26.104;2023-03-31T02:25:35;15.02;;;8.15;;
46158;SDS011;31888;44.512;26.104;2023-03-31T02:28:09;13.80;;;8.02;;
46158;SDS011;31888;44.512;26.104;2023-03-31T02:30:38;17.63;;;8.45;;
46158;SDS011;31888;44.512;26.104;2023-03-31T02:33:10;15.82;;;8.30;;
46158;SDS011;31888;44.512;26.104;2023-03-31T02:35:35;17.80;;;9.32;;
46158;SDS011;31888;44.512;26.104;2023-03-31T02:38:00;17.20;;;9.20;;
46158;SDS011;31888;44.512;26.104;2023-03-31T02:40:28;15.32;;;8.02;;
46158;SDS011;31888;44.512;26.104;2023-03-31T02:42:53;16.45;;;7.88;;
46158;SDS011;31888;44.512;26.104;2023-03-31T02:45:36;15.23;;;8.10;;
46158;SDS011;31888;44.512;26.104;2023-03-31T02:48:07;15.70;;;8.00;;
46158;SDS011;31888;44.512;26.104;2023-03-31T02:50:37;16.08;;;8.43;;
46158;SDS011;31888;44.512;26.104;2023-03-31T02:53:18;16.88;;;8.45;;
46158;SDS011;31888;44.512;26.104;2023-03-31T02:55:53;15.32;;;8.35;;
46158;SDS011;31888;44.512;26.104;2023-03-31T02:58:39;31.17;;;9.90;;
46158;SDS011;31888;44.512;26.104;2023-03-31T03:01:17;16.25;;;8.48;;
46158;SDS011;31888;44.512;26.104;2023-03-31T03:04:17;17.70;;;9.48;;
46158;SDS011;31888;44.512;26.104;2023-03-31T03:07:00;29.50;;;13.18;;
46158;SDS011;31888;44.512;26.104;2023-03-31T03:09:32;30.48;;;14.20;;
46158;SDS011;31888;44.512;26.104;2023-03-31T03:12:06;31.08;;;13.52;;
46158;SDS011;31888;44.512;26.104;2023-03-31T03:14:38;23.05;;;11.68;;
46158;SDS011;31888;44.512;26.104;2023-03-31T03:19:34;19.63;;;9.55;;
46158;SDS011;31888;44.512;26.104;2023-03-31T03:21:59;21.58;;;10.52;;
46158;SDS011;31888;44.512;26.104;2023-03-31T03:24:23;18.02;;;10.07;;
46158;SDS011;31888;44.512;26.104;2023-03-31T03:26:51;18.60;;;10.00;;
46158;SDS011;31888;44.512;26.104;2023-03-31T03:29:16;21.75;;;10.27;;
46158;SDS011;31888;44.512;26.104;2023-03-31T03:31:41;31.38;;;11.07;;
46158;SDS011;31888;44.512;26.104;2023-03-31T03:34:06;19.08;;;10.73;;
46158;SDS011;31888;44.512;26.104;2023-03-31T03:36:32;20.15;;;10.13;;
46158;SDS011;31888;44.512;26.104;2023-03-31T03:38:57;20.73;;;9.60;;
46158;SDS011;31888;44.512;26.104;2023-03-31T03:41:21;15.02;;;9.30;;
46158;SDS011;31888;44.512;26.104;2023-03-31T03:43:46;20.98;;;9.63;;
46158;SDS011;31888;44.512;26.104;2023-03-31T03:46:10;16.98;;;10.02;;
46158;SDS011;31888;44.512;26.104;2023-03-31T03:48:36;22.02;;;9.98;;
46158;SDS011;31888;44.512;26.104;2023-03-31T03:51:01;16.50;;;9.43;;
46158;SDS011;31888;44.512;26.104;2023-03-31T03:53:27;21.02;;;10.07;;
46158;SDS011;31888;44.512;26.104;2023-03-31T03:55:52;22.02;;;9.95;;
46158;SDS011;31888;44.512;26.104;2023-03-31T03:58:17;19.90;;;9.52;;
46158;SDS011;31888;44.512;26.104;2023-03-31T04:00:41;16.98;;;9.23;;
46158;SDS011;31888;44.512;26.104;2023-03-31T04:03:09;30.50;;;10.30;;
46158;SDS011;31888;44.512;26.104;2023-03-31T04:05:34;17.95;;;9.00;;
46158;SDS011;31888;44.512;26.104;2023-03-31T04:07:58;19.55;;;8.63;;
46158;SDS011;31888;44.512;26.104;2023-03-31T04:10:24;14.80;;;8.40;;
46158;SDS011;31888;44.512;26.104;2023-03-31T04:12:49;17.95;;;8.70;;
46158;SDS011;31888;44.512;26.104;2023-03-31T04:15:14;20.75;;;8.13;;
46158;SDS011;31888;44.512;26.104;2023-03-31T04:17:39;17.05;;;8.88;;
46158;SDS011;31888;44.512;26.104;2023-03-31T04:20:04;18.48;;;8.77;;
46158;SDS011;31888;44.512;26.104;2023-03-31T04:22:33;23.45;;;8.43;;
46158;SDS011;31888;44.512;26.104;2023-03-31T04:25:03;19.00;;;9.85;;
46158;SDS011;31888;44.512;26.104;2023-03-31T04:27:38;18.52;;;9.20;;
46158;SDS011;31888;44.512;26.104;2023-03-31T04:30:08;17.75;;;8.50;;
46158;SDS011;31888;44.512;26.104;2023-03-31T04:32:34;16.65;;;9.40;;
46158;SDS011;31888;44.512;26.104;2023-03-31T04:34:58;19.88;;;8.73;;
46158;SDS011;31888;44.512;26.104;2023-03-31T04:37:25;22.30;;;9.60;;
46158;SDS011;31888;44.512;26.104;2023-03-31T04:39:56;22.17;;;10.02;;
46158;SDS011;31888;44.512;26.104;2023-03-31T04:42:25;17.80;;;9.20;;
46158;SDS011;31888;44.512;26.104;2023-03-31T04:44:51;20.42;;;9.85;;
46158;SDS011;31888;44.512;26.104;2023-03-31T04:47:16;18.20;;;9.45;;
46158;SDS011;31888;44.512;26.104;2023-03-31T04:49:40;19.73;;;9.90;;
46158;SDS011;31888;44.512;26.104;2023-03-31T04:52:05;17.90;;;10.02;;
46158;SDS011;31888;44.512;26.104;2023-03-31T04:54:29;24.02;;;9.80;;
46158;SDS011;31888;44.512;26.104;2023-03-31T04:56:54;20.17;;;9.85;;
46158;SDS011;31888;44.512;26.104;2023-03-31T04:59:18;23.33;;;9.80;;
46158;SDS011;31888;44.512;26.104;2023-03-31T05:01:44;17.33;;;9.05;;
46158;SDS011;31888;44.512;26.104;2023-03-31T05:04:09;16.83;;;9.40;;
46158;SDS011;31888;44.512;26.104;2023-03-31T05:06:34;16.70;;;8.90;;
46158;SDS011;31888;44.512;26.104;2023-03-31T05:08:58;18.75;;;9.02;;
46158;SDS011;31888;44.512;26.104;2023-03-31T05:11:23;24.23;;;9.55;;
46158;SDS011;31888;44.512;26.104;2023-03-31T05:13:49;16.52;;;9.00;;
46158;SDS011;31888;44.512;26.104;2023-03-31T05:16:13;22.05;;;9.15;;
46158;SDS011;31888;44.512;26.104;2023-03-31T05:18:40;19.58;;;9.38;;
46158;SDS011;31888;44.512;26.104;2023-03-31T05:21:09;22.75;;;9.43;;
46158;SDS011;31888;44.512;26.104;2023-03-31T05:23:34;20.42;;;9.07;;
46158;SDS011;31888;44.512;26.104;2023-03-31T05:25:59;17.67;;;9.60;;
46158;SDS011;31888;44.512;26.104;2023-03-31T05:28:23;17.35;;;9.65;;
46158;SDS011;31888;44.512;26.104;2023-03-31T05:30:48;18.88;;;8.93;;
46158;SDS011;31888;44.512;26.104;2023-03-31T05:33:12;19.50;;;9.27;;
46158;SDS011;31888;44.512;26.104;2023-03-31T05:35:38;21.05;;;9.20;;
46158;SDS011;31888;44.512;26.104;2023-03-31T05:38:03;16.80;;;9.15;;
46158;SDS011;31888;44.512;26.104;2023-03-31T05:40:28;15.07;;;9.18;;
46158;SDS011;31888;44.512;26.104;2023-03-31T05:42:52;24.27;;;9.77;;
46158;SDS011;31888;44.512;26.104;2023-03-31T05:45:17;19.55;;;9.48;;
46158;SDS011;31888;44.512;26.104;2023-03-31T05:47:41;18.35;;;9.15;;
46158;SDS011;31888;44.512;26.104;2023-03-31T05:50:06;20.15;;;9.85;;
46158;SDS011;31888;44.512;26.104;2023-03-31T05:52:33;20.67;;;9.30;;
46158;SDS011;31888;44.512;26.104;2023-03-31T05:54:58;17.20;;;9.60;;
46158;SDS011;31888;44.512;26.104;2023-03-31T05:57:22;22.67;;;11.07;;
46158;SDS011;31888;44.512;26.104;2023-03-31T05:59:47;17.38;;;10.45;;
46158;SDS011;31888;44.512;26.104;2023-03-31T06:02:12;21.20;;;11.05;;
46158;SDS011;31888;44.512;26.104;2023-03-31T06:04:37;21.02;;;11.43;;
46158;SDS011;31888;44.512;26.104;2023-03-31T06:07:01;23.05;;;11.15;;
46158;SDS011;31888;44.512;26.104;2023-03-31T06:09:28;21.80;;;11.65;;
46158;SDS011;31888;44.512;26.104;2023-03-31T06:11:53;25.40;;;12.23;;
46158;SDS011;31888;44.512;26.104;2023-03-31T06:14:17;21.00;;;11.48;;
46158;SDS011;31888;44.512;26.104;2023-03-31T06:16:42;24.15;;;12.32;;
46158;SDS011;31888;44.512;26.104;2023-03-31T06:19:09;22.73;;;12.38;;
46158;SDS011;31888;44.512;26.104;2023-03-31T06:21:33;28.42;;;12.85;;
46158;SDS011;31888;44.512;26.104;2023-03-31T06:23:58;22.98;;;12.27;;
46158;SDS011;31888;44.512;26.104;2023-03-31T06:26:24;21.10;;;11.75;;
46158;SDS011;31888;44.512;26.104;2023-03-31T06:28:48;24.02;;;12.52;;
46158;SDS011;31888;44.512;26.104;2023-03-31T06:31:14;22.08;;;12.40;;
46158;SDS011;31888;44.512;26.104;2023-03-31T06:33:40;26.58;;;13.35;;
46158;SDS011;31888;44.512;26.104;2023-03-31T06:36:06;25.25;;;12.82;;
46158;SDS011;31888;44.512;26.104;2023-03-31T06:38:31;22.02;;;12.40;;
46158;SDS011;31888;44.512;26.104;2023-03-31T06:40:56;24.73;;;12.68;;
46158;SDS011;31888;44.512;26.104;2023-03-31T06:43:22;21.63;;;13.02;;
46158;SDS011;31888;44.512;26.104;2023-03-31T06:45:47;23.85;;;14.23;;
46158;SDS011;31888;44.512;26.104;2023-03-31T06:48:15;22.10;;;12.88;;
46158;SDS011;31888;44.512;26.104;2023-03-31T06:50:39;24.73;;;12.65;;
46158;SDS011;31888;44.512;26.104;2023-03-31T06:53:04;26.10;;;13.77;;
46158;SDS011;31888;44.512;26.104;2023-03-31T06:55:29;25.52;;;12.43;;
46158;SDS011;31888;44.512;26.104;2023-03-31T06:57:55;25.30;;;14.13;;
46158;SDS011;31888;44.512;26.104;2023-03-31T07:00:21;24.17;;;13.13;;
46158;SDS011;31888;44.512;26.104;2023-03-31T07:02:47;30.75;;;13.98;;
46158;SDS011;31888;44.512;26.104;2023-03-31T07:05:12;23.90;;;13.65;;
46158;SDS011;31888;44.512;26.104;2023-03-31T07:07:37;24.55;;;14.38;;
46158;SDS011;31888;44.512;26.104;2023-03-31T07:10:01;24.08;;;13.15;;
46158;SDS011;31888;44.512;26.104;2023-03-31T07:12:27;28.33;;;13.93;;
46158;SDS011;31888;44.512;26.104;2023-03-31T07:14:51;25.70;;;13.98;;
46158;SDS011;31888;44.512;26.104;2023-03-31T07:17:17;26.20;;;13.77;;
46158;SDS011;31888;44.512;26.104;2023-03-31T07:19:42;24.08;;;13.43;;
46158;SDS011;31888;44.512;26.104;2023-03-31T07:22:09;25.15;;;14.38;;
46158;SDS011;31888;44.512;26.104;2023-03-31T07:24:34;28.00;;;13.13;;
46158;SDS011;31888;44.512;26.104;2023-03-31T07:27:03;26.10;;;14.57;;
46158;SDS011;31888;44.512;26.104;2023-03-31T07:29:28;28.75;;;14.55;;
46158;SDS011;31888;44.512;26.104;2023-03-31T07:31:53;23.90;;;14.50;;
46158;SDS011;31888;44.512;26.104;2023-03-31T07:34:19;30.95;;;15.38;;
46158;SDS011;31888;44.512;26.104;2023-03-31T07:36:43;27.30;;;15.45;;
46158;SDS011;31888;44.512;26.104;2023-03-31T07:39:08;30.95;;;16.35;;
46158;SDS011;31888;44.512;26.104;2023-03-31T07:41:32;29.42;;;16.15;;
46158;SDS011;31888;44.512;26.104;2023-03-31T07:43:57;28.67;;;15.43;;
46158;SDS011;31888;44.512;26.104;2023-03-31T07:46:22;30.58;;;15.98;;
46158;SDS011;31888;44.512;26.104;2023-03-31T07:48:48;26.88;;;15.07;;
46158;SDS011;31888;44.512;26.104;2023-03-31T07:51:16;27.35;;;15.43;;
46158;SDS011;31888;44.512;26.104;2023-03-31T07:53:43;27.23;;;15.65;;
46158;SDS011;31888;44.512;26.104;2023-03-31T07:56:07;33.38;;;15.90;;
46158;SDS011;31888;44.512;26.104;2023-03-31T07:58:32;28.42;;;15.73;;
46158;SDS011;31888;44.512;26.104;2023-03-31T08:00:57;28.73;;;16.30;;
46158;SDS011;31888;44.512;26.104;2023-03-31T08:03:22;35.00;;;16.73;;
46158;SDS011;31888;44.512;26.104;2023-03-31T08:05:49;25.70;;;14.70;;
46158;SDS011;31888;44.512;26.104;2023-03-31T08:08:15;31.48;;;16.85;;
46158;SDS011;31888;44.512;26.104;2023-03-31T08:10:40;27.73;;;16.67;;
46158;SDS011;31888;44.512;26.104;2023-03-31T08:13:04;29.30;;;16.15;;
46158;SDS011;31888;44.512;26.104;2023-03-31T08:15:29;28.83;;;17.25;;
46158;SDS011;31888;44.512;26.104;2023-03-31T08:17:53;29.15;;;16.77;;
46158;SDS011;31888;44.512;26.104;2023-03-31T08:20:18;29.13;;;16.23;;
46158;SDS011;31888;44.512;26.104;2023-03-31T08:22:42;30.17;;;16.75;;
46158;SDS011;31888;44.512;26.104;2023-03-31T08:25:09;30.38;;;16.33;;
46158;SDS011;31888;44.512;26.104;2023-03-31T08:27:36;27.58;;;15.07;;
46158;SDS011;31888;44.512;26.104;2023-03-31T08:30:04;29.17;;;15.65;;
46158;SDS011;31888;44.512;26.104;2023-03-31T08:32:30;31.02;;;16.27;;
46158;SDS011;31888;44.512;26.104;2023-03-31T08:34:57;28.60;;;16.27;;
46158;SDS011;31888;44.512;26.104;2023-03-31T08:37:22;30.10;;;15.80;;
46158;SDS011;31888;44.512;26.104;2023-03-31T08:39:47;28.13;;;15.70;;
46158;SDS011;31888;44.512;26.104;2023-03-31T08:42:14;28.45;;;15.15;;
46158;SDS011;31888;44.512;26.104;2023-03-31T08:44:41;26.17;;;15.98;;
46158;SDS011;31888;44.512;26.104;2023-03-31T08:47:12;26.38;;;14.93;;
46158;SDS011;31888;44.512;26.104;2023-03-31T08:49:45;24.52;;;14.27;;
46158;SDS011;31888;44.512;26.104;2023-03-31T08:52:14;28.23;;;15.35;;
46158;SDS011;31888;44.512;26.104;2023-03-31T08:54:43;26.13;;;14.90;;
46158;SDS011;31888;44.512;26.104;2023-03-31T08:57:16;26.77;;;15.25;;
46158;SDS011;31888;44.512;26.104;2023-03-31T08:59:43;26.58;;;14.70;;
46158;SDS011;31888;44.512;26.104;2023-03-31T09:02:10;26.52;;;14.77;;
46158;SDS011;31888;44.512;26.104;2023-03-31T09:04:46;22.65;;;14.00;;
46158;SDS011;31888;44.512;26.104;2023-03-31T09:07:27;24.10;;;14.38;;
46158;SDS011;31888;44.512;26.104;2023-03-31T09:10:12;26.15;;;14.65;;
46158;SDS011;31888;44.512;26.104;2023-03-31T09:12:52;23.33;;;15.05;;
46158;SDS011;31888;44.512;26.104;2023-03-31T09:15:24;28.45;;;13.95;;
46158;SDS011;31888;44.512;26.104;2023-03-31T09:17:51;20.90;;;13.20;;
46158;SDS011;31888;44.512;26.104;2023-03-31T09:20:19;21.08;;;12.85;;
46158;SDS011;31888;44.512;26.104;2023-03-31T09:22:51;17.80;;;12.43;;
46158;SDS011;31888;44.512;26.104;2023-03-31T09:25:22;22.25;;;13.00;;
46158;SDS011;31888;44.512;26.104;2023-03-31T09:27:51;15.35;;;9.68;;
46158;SDS011;31888;44.512;26.104;2023-03-31T09:30:19;15.02;;;10.52;;
46158;SDS011;31888;44.512;26.104;2023-03-31T09:32:50;15.43;;;10.38;;
46158;SDS011;31888;44.512;26.104;2023-03-31T09:35:23;18.25;;;10.68;;
46158;SDS011;31888;44.512;26.104;2023-03-31T09:37:51;14.45;;;9.90;;
46158;SDS011;31888;44.512;26.104;2023-03-31T09:40:18;17.65;;;9.98;;
46158;SDS011;31888;44.512;26.104;2023-03-31T09:42:44;14.77;;;10.00;;
46158;SDS011;31888;44.512;26.104;2023-03-31T09:45:14;16.40;;;9.57;;
46158;SDS011;31888;44.512;26.104;2023-03-31T09:47:40;16.33;;;10.27;;
46158;SDS011;31888;44.512;26.104;2023-03-31T09:50:08;12.70;;;9.65;;
46158;SDS011;31888;44.512;26.104;2023-03-31T09:52:33;18.13;;;10.32;;
46158;SDS011;31888;44.512;26.104;2023-03-31T09:55:00;18.13;;;9.73;;
46158;SDS011;31888;44.512;26.104;2023-03-31T09:57:28;17.63;;;10.90;;
46158;SDS011;31888;44.512;26.104;2023-03-31T10:00:00;15.32;;;9.95;;
46158;SDS011;31888;44.512;26.104;2023-03-31T10:02:36;17.88;;;10.88;;
46158;SDS011;31888;44.512;26.104;2023-03-31T10:05:03;17.48;;;10.90;;
46158;SDS011;31888;44.512;26.104;2023-03-31T10:07:29;15.63;;;11.00;;
46158;SDS011;31888;44.512;26.104;2023-03-31T10:09:55;17.42;;;11.32;;
46158;SDS011;31888;44.512;26.104;2023-03-31T10:12:21;18.15;;;10.65;;
46158;SDS011;31888;44.512;26.104;2023-03-31T10:14:48;20.58;;;11.93;;
46158;SDS011;31888;44.512;26.104;2023-03-31T10:17:15;16.85;;;10.40;;
46158;SDS011;31888;44.512;26.104;2023-03-31T10:19:47;20.90;;;11.20;;
46158;SDS011;31888;44.512;26.104;2023-03-31T10:22:14;22.77;;;12.10;;
46158;SDS011;31888;44.512;26.104;2023-03-31T10:24:40;19.55;;;12.00;;
46158;SDS011;31888;44.512;26.104;2023-03-31T10:27:12;23.25;;;12.43;;
46158;SDS011;31888;44.512;26.104;2023-03-31T10:29:44;19.40;;;12.45;;
46158;SDS011;31888;44.512;26.104;2023-03-31T10:32:17;17.25;;;11.85;;
46158;SDS011;31888;44.512;26.104;2023-03-31T10:34:49;18.77;;;12.15;;
46158;SDS011;31888;44.512;26.104;2023-03-31T10:37:16;21.70;;;12.00;;
46158;SDS011;31888;44.512;26.104;2023-03-31T10:39:42;17.77;;;11.05;;
46158;SDS011;31888;44.512;26.104;2023-03-31T10:42:09;19.75;;;12.52;;
46158;SDS011;31888;44.512;26.104;2023-03-31T10:44:34;22.40;;;12.57;;
46158;SDS011;31888;44.512;26.104;2023-03-31T10:47:03;21.15;;;13.18;;
46158;SDS011;31888;44.512;26.104;2023-03-31T10:49:39;16.63;;;11.60;;
46158;SDS011;31888;44.512;26.104;2023-03-31T10:52:14;19.42;;;12.20;;
46158;SDS011;31888;44.512;26.104;2023-03-31T10:54:45;20.38;;;13.23;;
46158;SDS011;31888;44.512;26.104;2023-03-31T10:57:13;23.88;;;13.63;;
46158;SDS011;31888;44.512;26.104;2023-03-31T10:59:41;22.90;;;13.02;;
46158;SDS011;31888;44.512;26.104;2023-03-31T11:02:33;19.65;;;13.55;;
46158;SDS011;31888;44.512;26.104;2023-03-31T11:05:26;20.95;;;12.70;;
46158;SDS011;31888;44.512;26.104;2023-03-31T11:08:00;21.75;;;13.55;;
46158;SDS011;31888;44.512;26.104;2023-03-31T11:10:47;24.77;;;12.63;;
46158;SDS011;31888;44.512;26.104;2023-03-31T11:13:20;26.25;;;12.27;;
46158;SDS011;31888;44.512;26.104;2023-03-31T11:15:50;21.73;;;14.10;;
46158;SDS011;31888;44.512;26.104;2023-03-31T11:18:33;19.60;;;12.68;;
46158;SDS011;31888;44.512;26.104;2023-03-31T11:21:04;19.17;;;13.15;;
46158;SDS011;31888;44.512;26.104;2023-03-31T11:23:41;26.48;;;13.82;;
46158;SDS011;31888;44.512;26.104;2023-03-31T11:26:09;18.42;;;13.07;;
46158;SDS011;31888;44.512;26.104;2023-03-31T11:28:49;20.48;;;12.75;;
46158;SDS011;31888;44.512;26.104;2023-03-31T11:31:26;23.38;;;14.75;;
46158;SDS011;31888;44.512;26.104;2023-03-31T11:34:05;24.02;;;14.77;;
46158;SDS011;31888;44.512;26.104;2023-03-31T11:39:42;21.55;;;13.27;;
46158;SDS011;31888;44.512;26.104;2023-03-31T11:42:15;20.10;;;12.32;;
46158;SDS011;31888;44.512;26.104;2023-03-31T11:44:43;19.55;;;11.65;;
46158;SDS011;31888;44.512;26.104;2023-03-31T11:47:15;22.45;;;13.25;;
46158;SDS011;31888;44.512;26.104;2023-03-31T11:49:43;18.75;;;11.82;;
46158;SDS011;31888;44.512;26.104;2023-03-31T11:52:12;16.92;;;11.77;;
46158;SDS011;31888;44.512;26.104;2023-03-31T11:54:40;17.42;;;10.82;;
46158;SDS011;31888;44.512;26.104;2023-03-31T11:57:12;16.08;;;9.70;;
46158;SDS011;31888;44.512;26.104;2023-03-31T11:59:42;13.43;;;10.15;;
46158;SDS011;31888;44.512;26.104;2023-03-31T12:02:13;14.40;;;9.23;;
46158;SDS011;31888;44.512;26.104;2023-03-31T12:04:41;16.88;;;9.40;;
46158;SDS011;31888;44.512;26.104;2023-03-31T12:07:15;23.65;;;8.20;;
46158;SDS011;31888;44.512;26.104;2023-03-31T12:09:49;13.82;;;9.30;;
46158;SDS011;31888;44.512;26.104;2023-03-31T12:12:18;11.75;;;7.60;;
46158;SDS011;31888;44.512;26.104;2023-03-31T12:14:47;12.40;;;8.05;;
46158;SDS011;31888;44.512;26.104;2023-03-31T12:17:16;11.30;;;6.55;;
46158;SDS011;31888;44.512;26.104;2023-03-31T12:19:44;10.43;;;5.78;;
46158;SDS011;31888;44.512;26.104;2023-03-31T12:22:12;11.10;;;6.07;;
46158;SDS011;31888;44.512;26.104;2023-03-31T12:24:41;12.27;;;5.30;;
46158;SDS011;31888;44.512;26.104;2023-03-31T12:27:10;10.50;;;5.72;;
46158;SDS011;31888;44.512;26.104;2023-03-31T12:29:41;7.50;;;5.82;;
46158;SDS011;31888;44.512;26.104;2023-03-31T12:32:09;7.18;;;5.28;;
46158;SDS011;31888;44.512;26.104;2023-03-31T12:34:39;10.23;;;6.22;;
46158;SDS011;31888;44.512;26.104;2023-03-31T12:37:17;9.60;;;4.90;;
46158;SDS011;31888;44.512;26.104;2023-03-31T12:42:37;6.80;;;4.50;;
46158;SDS011;31888;44.512;26.104;2023-03-31T12:45:13;6.70;;;4.63;;
46158;SDS011;31888;44.512;26.104;2023-03-31T12:47:52;5.75;;;4.25;;
46158;SDS011;31888;44.512;26.104;2023-03-31T12:50:36;8.00;;;4.68;;
46158;SDS011;31888;44.512;26.104;2023-03-31T12:53:12;9.27;;;5.05;;
46158;SDS011;31888;44.512;26.104;2023-03-31T12:55:44;6.45;;;4.57;;
46158;SDS011;31888;44.512;26.104;2023-03-31T12:58:34;7.72;;;4.60;;
46158;SDS011;31888;44.512;26.104;2023-03-31T13:01:05;8.80;;;5.03;;
46158;SDS011;31888;44.512;26.104;2023-03-31T13:03:45;7.82;;;4.93;;
46158;SDS011;31888;44.512;26.104;2023-03-31T13:06:50;8.05;;;5.88;;
46158;SDS011;31888;44.512;26.104;2023-03-31T13:12:06;7.75;;;4.45;;
46158;SDS011;31888;44.512;26.104;2023-03-31T13:14:36;7.72;;;5.20;;
46158;SDS011;31888;44.512;26.104;2023-03-31T13:17:10;10.27;;;4.72;;
46158;SDS011;31888;44.512;26.104;2023-03-31T13:19:38;9.95;;;4.40;;
46158;SDS011;31888;44.512;26.104;2023-03-31T13:22:04;5.35;;;4.00;;
46158;SDS011;31888;44.512;26.104;2023-03-31T13:24:30;7.70;;;4.55;;
46158;SDS011;31888;44.512;26.104;2023-03-31T13:26:56;8.73;;;4.90;;
46158;SDS011;31888;44.512;26.104;2023-03-31T13:29:23;7.30;;;4.95;;
46158;SDS011;31888;44.512;26.104;2023-03-31T13:34:46;8.13;;;3.70;;
46158;SDS011;31888;44.512;26.104;2023-03-31T13:37:26;10.63;;;4.55;;
46158;SDS011;31888;44.512;26.104;2023-03-31T13:40:12;9.75;;;4.57;;
46158;SDS011;31888;44.512;26.104;2023-03-31T13:43:01;5.13;;;3.33;;
46158;SDS011;31888;44.512;26.104;2023-03-31T13:46:03;7.22;;;3.83;;
46158;SDS011;31888;44.512;26.104;2023-03-31T13:48:49;4.72;;;3.92;;
46158;SDS011;31888;44.512;26.104;2023-03-31T13:51:36;8.38;;;4.00;;
46158;SDS011;31888;44.512;26.104;2023-03-31T13:57:26;6.70;;;3.63;;
46158;SDS011;31888;44.512;26.104;2023-03-31T14:00:10;6.85;;;4.30;;
46158;SDS011;31888;44.512;26.104;2023-03-31T14:02:53;10.93;;;4.05;;
46158;SDS011;31888;44.512;26.104;2023-03-31T14:05:37;6.78;;;3.70;;
46158;SDS011;31888;44.512;26.104;2023-03-31T14:08:05;5.68;;;3.60;;
46158;SDS011;31888;44.512;26.104;2023-03-31T14:10:34;15.43;;;4.18;;
46158;SDS011;31888;44.512;26.104;2023-03-31T14:13:07;8.32;;;3.92;;
46158;SDS011;31888;44.512;26.104;2023-03-31T14:15:36;6.03;;;3.30;;
46158;SDS011;31888;44.512;26.104;2023-03-31T14:18:09;6.38;;;3.72;;
46158;SDS011;31888;44.512;26.104;2023-03-31T14:20:45;10.32;;;3.40;;
46158;SDS011;31888;44.512;26.104;2023-03-31T14:23:22;6.18;;;3.28;;
46158;SDS011;31888;44.512;26.104;2023-03-31T14:25:57;7.00;;;3.53;;
46158;SDS011;31888;44.512;26.104;2023-03-31T14:28:35;6.57;;;3.00;;
46158;SDS011;31888;44.512;26.104;2023-03-31T14:31:18;3.97;;;2.78;;
46158;SDS011;31888;44.512;26.104;2023-03-31T14:34:07;4.82;;;3.13;;
46158;SDS011;31888;44.512;26.104;2023-03-31T14:36:50;6.90;;;3.10;;
46158;SDS011;31888;44.512;26.104;2023-03-31T14:39:21;10.13;;;3.13;;
46158;SDS011;31888;44.512;26.104;2023-03-31T14:41:51;6.82;;;3.15;;
46158;SDS011;31888;44.512;26.104;2023-03-31T14:44:20;5.82;;;2.70;;
46158;SDS011;31888;44.512;26.104;2023-03-31T14:46:48;6.10;;;2.83;;
46158;SDS011;31888;44.512;26.104;2023-03-31T14:49:20;6.13;;;2.78;;
46158;SDS011;31888;44.512;26.104;2023-03-31T14:51:50;3.17;;;2.42;;
46158;SDS011;31888;44.512;26.104;2023-03-31T14:54:16;6.03;;;2.72;;
46158;SDS011;31888;44.512;26.104;2023-03-31T14:56:42;6.38;;;2.97;;
46158;SDS011;31888;44.512;26.104;2023-03-31T14:59:12;5.20;;;2.67;;
46158;SDS011;31888;44.512;26.104;2023-03-31T15:01:41;7.78;;;3.00;;